createdAt,value
2023-05-21T00:01:48.400Z,0.93
2023-05-21T00:04:15.655Z,1.05
2023-05-21T00:06:42.097Z,1.35
2023-05-21T00:09:08.569Z,1.48
2023-05-21T00:11:35.847Z,1.20
2023-05-21T00:14:02.346Z,0.88
2023-05-21T00:16:28.887Z,1.30
2023-05-21T00:18:55.586Z,0.85
2023-05-21T00:21:22.689Z,1.08
2023-05-21T00:23:50.098Z,1.02
2023-05-21T00:26:16.574Z,1.10
2023-05-21T00:28:43.235Z,1.02
2023-05-21T00:31:10.216Z,1.30
2023-05-21T00:33:36.643Z,1.33
2023-05-21T00:36:03.365Z,1.05
2023-05-21T00:38:32.869Z,1.17
2023-05-21T00:41:02.915Z,1.25
2023-05-21T00:45:56.598Z,1.35
2023-05-21T00:48:23.763Z,0.90
2023-05-21T00:50:50.607Z,1.50
2023-05-21T00:53:19.341Z,1.38
2023-05-21T00:55:46.598Z,1.52
2023-05-21T00:58:13.223Z,2.35
2023-05-21T01:00:40.680Z,1.83
2023-05-21T01:03:07.561Z,1.52
2023-05-21T01:05:34.394Z,1.38
2023-05-21T01:08:01.530Z,1.45
2023-05-21T01:10:29.314Z,1.13
2023-05-21T01:12:58.030Z,1.75
2023-05-21T01:15:25.949Z,1.98
2023-05-21T01:17:53.164Z,1.02
2023-05-21T01:20:20.385Z,1.75
2023-05-21T01:22:52.943Z,1.88
2023-05-21T01:25:19.603Z,1.77
2023-05-21T01:27:46.083Z,1.90
2023-05-21T01:30:13.626Z,1.35
2023-05-21T01:32:59.027Z,1.67
2023-05-21T01:35:31.151Z,1.83
2023-05-21T01:38:07.509Z,1.65
2023-05-21T01:40:43.541Z,2.15
2023-05-21T01:43:10.830Z,1.45
2023-05-21T01:45:41.263Z,1.58
2023-05-21T01:48:09.401Z,2.00
2023-05-21T01:50:38.910Z,1.80
2023-05-21T01:53:06.022Z,2.17
2023-05-21T01:55:33.019Z,2.22
2023-05-21T01:58:02.182Z,2.00
2023-05-21T02:00:29.370Z,2.20
2023-05-21T02:02:56.056Z,2.42
2023-05-21T02:05:22.568Z,2.55
2023-05-21T02:07:51.954Z,1.45
2023-05-21T02:10:18.854Z,2.15
2023-05-21T02:12:45.939Z,2.00
2023-05-21T02:15:14.236Z,2.00
2023-05-21T02:17:42.329Z,2.22
2023-05-21T02:20:11.713Z,1.48
2023-05-21T02:22:39.551Z,2.20
2023-05-21T02:25:10.595Z,2.08
2023-05-21T02:27:37.720Z,1.92
2023-05-21T02:30:06.810Z,1.95
2023-05-21T02:32:34.014Z,1.98
2023-05-21T02:35:01.885Z,2.42
2023-05-21T02:37:28.337Z,2.28
2023-05-21T02:39:55.650Z,2.40
2023-05-21T02:42:23.582Z,2.55
2023-05-21T02:44:52.838Z,2.38
2023-05-21T02:47:20.570Z,2.47
2023-05-21T02:49:50.314Z,3.20
2023-05-21T02:52:20.079Z,2.05
2023-05-21T02:54:47.051Z,2.25
2023-05-21T02:57:14.119Z,2.47
2023-05-21T02:59:40.688Z,3.00
2023-05-21T03:02:07.463Z,1.92
2023-05-21T03:04:39.220Z,2.38
2023-05-21T03:07:06.252Z,2.55
2023-05-21T03:09:32.752Z,3.05
2023-05-21T03:11:59.764Z,2.33
2023-05-21T03:14:28.954Z,2.30
2023-05-21T03:16:55.460Z,2.65
2023-05-21T03:19:22.103Z,3.63
2023-05-21T03:21:50.472Z,2.45
2023-05-21T03:24:17.262Z,2.50
2023-05-21T03:26:44.109Z,2.80
2023-05-21T03:29:10.628Z,2.85
2023-05-21T03:31:38.110Z,3.30
2023-05-21T03:34:14.030Z,2.10
2023-05-21T03:36:40.777Z,1.83
2023-05-21T03:39:08.075Z,2.15
2023-05-21T03:41:34.644Z,2.75
2023-05-21T03:44:10.459Z,2.55
2023-05-21T03:46:51.778Z,2.90
2023-05-21T03:49:21.810Z,2.20
2023-05-21T03:51:50.811Z,2.92
2023-05-21T03:54:19.441Z,2.55
2023-05-21T03:56:46.563Z,2.45
2023-05-21T03:59:13.192Z,2.30
2023-05-21T04:01:39.666Z,1.80
2023-05-21T04:06:36.793Z,2.58
2023-05-21T04:09:04.560Z,3.13
2023-05-21T04:11:31.348Z,2.92
2023-05-21T04:13:57.758Z,2.85
2023-05-21T04:16:24.551Z,2.17
2023-05-21T04:18:52.366Z,2.42
2023-05-21T04:21:19.315Z,2.70
2023-05-21T04:23:46.028Z,2.78
2023-05-21T04:26:22.712Z,2.90
2023-05-21T04:28:50.422Z,3.33
2023-05-21T04:31:17.015Z,2.63
2023-05-21T04:33:45.826Z,2.22
2023-05-21T04:36:12.409Z,2.60
2023-05-21T04:38:41.814Z,3.35
2023-05-21T04:41:10.773Z,2.90
2023-05-21T04:43:38.370Z,2.33
2023-05-21T04:46:05.997Z,2.50
2023-05-21T04:48:33.238Z,3.17
2023-05-21T04:50:59.882Z,1.98
2023-05-21T04:53:27.089Z,2.50
2023-05-21T04:55:53.830Z,2.75
2023-05-21T04:58:20.478Z,2.55
2023-05-21T05:00:47.564Z,2.53
2023-05-21T05:03:15.384Z,2.65
2023-05-21T05:05:43.522Z,2.75
2023-05-21T05:08:10.974Z,1.92
2023-05-21T05:10:37.909Z,2.85
2023-05-21T05:13:04.361Z,2.83
2023-05-21T05:15:31.110Z,3.25
2023-05-21T05:17:57.943Z,2.35
2023-05-21T05:20:24.468Z,2.50
2023-05-21T05:22:51.112Z,2.47
2023-05-21T05:25:17.620Z,2.03
2023-05-21T05:27:44.800Z,2.30
2023-05-21T05:30:11.765Z,2.38
2023-05-21T05:32:38.377Z,2.65
2023-05-21T05:35:05.956Z,3.17
2023-05-21T05:37:33.792Z,2.35
2023-05-21T05:40:00.486Z,2.58
2023-05-21T05:42:27.342Z,3.15
2023-05-21T05:44:54.239Z,2.15
2023-05-21T05:47:21.648Z,2.97
2023-05-21T05:49:48.149Z,2.97
2023-05-21T05:52:14.688Z,3.25
2023-05-21T05:54:41.190Z,2.45
2023-05-21T05:57:08.640Z,3.17
2023-05-21T05:59:35.703Z,2.03
2023-05-21T06:02:02.536Z,2.58
2023-05-21T06:04:29.917Z,2.35
2023-05-21T06:06:57.670Z,2.38
2023-05-21T06:09:24.896Z,2.45
2023-05-21T06:11:51.880Z,2.22
2023-05-21T06:14:18.554Z,2.83
2023-05-21T06:16:45.078Z,2.38
2023-05-21T06:19:12.251Z,2.70
2023-05-21T06:21:38.820Z,2.85
2023-05-21T06:24:06.772Z,2.53
2023-05-21T06:26:33.429Z,3.08
2023-05-21T06:29:00.279Z,2.33
2023-05-21T06:31:26.818Z,3.17
2023-05-21T06:33:53.945Z,2.97
2023-05-21T06:36:21.412Z,3.33
2023-05-21T06:38:47.965Z,2.65
2023-05-21T06:41:14.492Z,3.20
2023-05-21T06:43:49.406Z,2.97
2023-05-21T06:46:35.522Z,2.50
2023-05-21T06:49:07.130Z,2.95
2023-05-21T06:51:34.171Z,2.60
2023-05-21T06:54:00.727Z,2.72
2023-05-21T06:56:28.591Z,3.20
2023-05-21T06:58:55.252Z,2.75
2023-05-21T07:01:24.898Z,2.47
2023-05-21T07:03:51.618Z,3.20
2023-05-21T07:06:18.143Z,2.63
2023-05-21T07:08:45.946Z,2.47
2023-05-21T07:11:12.399Z,2.63
2023-05-21T07:13:39.564Z,2.60
2023-05-21T07:16:06.523Z,2.65
2023-05-21T07:18:33.020Z,3.17
2023-05-21T07:20:59.637Z,2.50
2023-05-21T07:23:26.700Z,2.72
2023-05-21T07:25:53.679Z,2.60
2023-05-21T07:28:20.506Z,3.53
2023-05-21T07:30:47.157Z,2.80
2023-05-21T07:33:20.520Z,2.95
2023-05-21T07:35:47.888Z,2.70
2023-05-21T07:38:14.494Z,2.92
2023-05-21T07:40:41.139Z,3.28
2023-05-21T07:43:07.587Z,2.55
2023-05-21T07:45:35.741Z,2.30
2023-05-21T07:48:02.790Z,3.45
2023-05-21T07:50:31.750Z,3.50
2023-05-21T07:52:58.355Z,3.25
2023-05-21T07:55:24.968Z,1.60
2023-05-21T07:57:55.195Z,2.03
2023-05-21T08:00:27.560Z,2.53
2023-05-21T08:02:57.171Z,3.17
2023-05-21T08:05:25.680Z,2.88
2023-05-21T08:07:52.200Z,3.13
2023-05-21T08:10:19.751Z,3.22
2023-05-21T08:12:48.050Z,3.20
2023-05-21T08:15:14.681Z,2.50
2023-05-21T08:17:44.512Z,2.72
2023-05-21T08:20:11.706Z,3.13
2023-05-21T08:22:38.721Z,2.53
2023-05-21T08:25:05.750Z,1.98
2023-05-21T08:27:32.245Z,3.10
2023-05-21T08:29:58.808Z,3.10
2023-05-21T08:32:26.088Z,2.58
2023-05-21T08:34:53.774Z,2.70
2023-05-21T08:37:42.646Z,3.42
2023-05-21T08:40:27.691Z,2.47
2023-05-21T08:42:55.230Z,2.50
2023-05-21T08:45:38.064Z,2.55
2023-05-21T08:48:06.387Z,3.53
2023-05-21T08:50:34.068Z,2.97
2023-05-21T08:53:12.759Z,3.42
2023-05-21T08:55:52.491Z,2.65
2023-05-21T08:58:20.113Z,3.10
2023-05-21T09:00:46.701Z,3.28
2023-05-21T09:03:14.981Z,3.40
2023-05-21T09:05:43.905Z,2.70
2023-05-21T09:08:19.026Z,3.35
2023-05-21T09:10:55.722Z,2.55
2023-05-21T09:13:28.855Z,3.47
2023-05-21T09:15:55.902Z,3.38
2023-05-21T09:18:24.096Z,3.35
2023-05-21T09:21:26.975Z,3.33
2023-05-21T09:23:58.293Z,3.05
2023-05-21T09:26:26.495Z,2.67
2023-05-21T09:28:58.281Z,2.85
2023-05-21T09:31:26.067Z,2.95
2023-05-21T09:33:53.172Z,2.85
2023-05-21T09:36:21.934Z,3.05
2023-05-21T09:38:50.222Z,2.97
2023-05-21T09:41:21.235Z,3.72
2023-05-21T09:43:48.906Z,3.38
2023-05-21T09:46:16.116Z,2.80
2023-05-21T09:48:43.310Z,3.10
2023-05-21T09:51:18.947Z,3.90
2023-05-21T09:53:58.797Z,3.53
2023-05-21T09:56:29.016Z,2.97
2023-05-21T09:58:57.472Z,2.75
2023-05-21T10:01:24.802Z,3.08
2023-05-21T10:03:58.757Z,2.25
2023-05-21T10:06:39.876Z,3.38
2023-05-21T10:09:10.627Z,3.38
2023-05-21T10:11:40.053Z,2.05
2023-05-21T10:14:16.629Z,3.03
2023-05-21T10:16:44.557Z,3.05
2023-05-21T10:19:13.123Z,3.10
2023-05-21T10:21:41.084Z,3.10
2023-05-21T10:24:09.351Z,2.95
2023-05-21T10:26:36.268Z,2.60
2023-05-21T10:29:03.089Z,3.17
2023-05-21T10:31:29.620Z,3.75
2023-05-21T10:33:56.400Z,2.83
2023-05-21T10:36:24.207Z,3.33
2023-05-21T10:38:51.143Z,2.83
2023-05-21T10:41:19.972Z,2.75
2023-05-21T10:44:01.110Z,2.95
2023-05-21T10:46:53.275Z,3.60
2023-05-21T10:49:30.369Z,3.08
2023-05-21T10:52:15.467Z,3.30
2023-05-21T10:54:44.735Z,3.42
2023-05-21T10:57:28.849Z,2.85
2023-05-21T10:59:57.870Z,3.78
2023-05-21T11:02:26.489Z,3.10
2023-05-21T11:05:00.141Z,3.58
2023-05-21T11:07:56.225Z,3.45
2023-05-21T11:10:37.897Z,3.38
2023-05-21T11:13:10.629Z,3.42
2023-05-21T11:15:58.634Z,2.92
2023-05-21T11:18:31.207Z,3.20
2023-05-21T11:21:28.413Z,3.92
2023-05-21T11:24:06.284Z,3.58
2023-05-21T11:26:48.325Z,3.90
2023-05-21T11:29:15.059Z,3.53
2023-05-21T11:31:49.043Z,3.40
2023-05-21T11:34:19.543Z,3.85
2023-05-21T11:36:48.056Z,3.45
2023-05-21T11:39:17.931Z,5.47
2023-05-21T11:42:04.377Z,3.90
2023-05-21T11:45:00.862Z,3.55
2023-05-21T11:47:28.897Z,4.10
2023-05-21T11:49:57.137Z,5.53
2023-05-21T11:52:23.773Z,4.20
2023-05-21T11:54:57.378Z,3.90
2023-05-21T11:57:31.695Z,4.88
2023-05-21T12:00:00.068Z,5.10
2023-05-21T12:02:28.443Z,5.03
2023-05-21T12:04:55.861Z,3.90
2023-05-21T12:07:22.488Z,4.47
2023-05-21T12:09:50.904Z,4.63
2023-05-21T12:12:19.428Z,5.22
2023-05-21T12:14:50.091Z,4.25
2023-05-21T12:17:18.895Z,4.18
2023-05-21T12:19:46.332Z,5.05
2023-05-21T12:22:13.409Z,4.82
2023-05-21T12:24:39.906Z,4.90
2023-05-21T12:27:10.265Z,4.78
2023-05-21T12:29:38.569Z,4.35
2023-05-21T12:32:08.778Z,4.22
2023-05-21T12:34:46.258Z,4.63
2023-05-21T12:37:18.099Z,4.93
2023-05-21T12:39:45.803Z,4.50
2023-05-21T12:42:12.816Z,5.07
2023-05-21T12:44:43.389Z,3.97
2023-05-21T12:47:11.190Z,4.53
2023-05-21T12:49:44.634Z,5.30
2023-05-21T12:52:12.511Z,4.32
2023-05-21T12:54:41.201Z,5.05
2023-05-21T12:57:15.297Z,4.82
2023-05-21T12:59:56.543Z,5.53
2023-05-21T13:02:31.799Z,5.53
2023-05-21T13:04:59.849Z,5.60
2023-05-21T13:07:27.815Z,4.50
2023-05-21T13:09:55.108Z,5.80
2023-05-21T13:12:26.470Z,4.88
2023-05-21T13:14:55.303Z,5.03
2023-05-21T13:17:23.308Z,5.68
2023-05-21T13:20:09.510Z,6.18
2023-05-21T13:22:47.478Z,5.75
2023-05-21T13:25:16.301Z,5.20
2023-05-21T13:27:43.498Z,6.35
2023-05-21T13:30:13.792Z,7.07
2023-05-21T13:32:41.512Z,4.95
2023-05-21T13:35:08.705Z,4.90
2023-05-21T13:37:38.225Z,5.70
2023-05-21T13:42:33.906Z,3.85
2023-05-21T13:45:00.482Z,4.90
2023-05-21T13:47:26.966Z,4.80
2023-05-21T13:49:53.446Z,4.80
2023-05-21T13:52:19.978Z,5.50
2023-05-21T13:54:46.532Z,5.15
2023-05-21T13:57:13.061Z,5.43
2023-05-21T13:59:40.856Z,5.80
2023-05-21T14:02:08.974Z,5.55
2023-05-21T14:04:38.395Z,5.88
2023-05-21T14:07:06.435Z,4.90
2023-05-21T14:09:32.964Z,4.80
2023-05-21T14:11:59.541Z,4.53
2023-05-21T14:14:26.263Z,4.43
2023-05-21T14:16:52.898Z,4.57
2023-05-21T14:19:19.620Z,5.30
2023-05-21T14:21:46.109Z,4.40
2023-05-21T14:24:12.677Z,4.57
2023-05-21T14:26:42.486Z,5.57
2023-05-21T14:29:09.301Z,5.13
2023-05-21T14:31:36.435Z,5.57
2023-05-21T14:34:03.091Z,5.18
2023-05-21T14:36:30.022Z,5.00
2023-05-21T14:38:56.510Z,5.00
2023-05-21T14:41:27.178Z,5.47
2023-05-21T14:43:54.045Z,5.00
2023-05-21T14:46:20.776Z,4.65
2023-05-21T14:48:47.393Z,4.63
2023-05-21T14:51:14.295Z,5.90
2023-05-21T14:53:41.043Z,5.35
2023-05-21T14:56:08.014Z,4.78
2023-05-21T14:58:34.586Z,4.75
2023-05-21T15:01:02.510Z,4.55
2023-05-21T15:03:29.166Z,4.90
2023-05-21T15:05:55.787Z,4.20
2023-05-21T15:08:22.683Z,4.30
2023-05-21T15:10:49.298Z,4.57
2023-05-21T15:13:15.794Z,4.93
2023-05-21T15:15:42.384Z,4.70
2023-05-21T15:18:08.978Z,4.78
2023-05-21T15:20:35.580Z,4.57
2023-05-21T15:23:15.450Z,4.97
2023-05-21T15:25:43.607Z,4.72
2023-05-21T15:28:11.697Z,3.95
2023-05-21T15:30:38.275Z,4.90
2023-05-21T15:33:04.787Z,4.00
2023-05-21T15:35:31.370Z,4.10
2023-05-21T15:37:57.946Z,3.33
2023-05-21T15:40:26.772Z,4.13
2023-05-21T15:42:53.648Z,4.93
2023-05-21T15:45:20.510Z,5.03
2023-05-21T15:47:47.038Z,4.63
2023-05-21T15:50:13.509Z,4.18
2023-05-21T15:52:41.358Z,4.13
2023-05-21T15:55:08.262Z,4.38
2023-05-21T15:57:34.828Z,4.03
2023-05-21T16:00:01.323Z,4.40
2023-05-21T16:02:27.795Z,5.35
2023-05-21T16:04:54.324Z,5.43
2023-05-21T16:07:22.861Z,3.67
2023-05-21T16:09:49.389Z,3.53
2023-05-21T16:12:15.944Z,2.95
2023-05-21T16:14:42.417Z,3.17
2023-05-21T16:17:09.055Z,2.72
2023-05-21T16:19:35.726Z,2.55
2023-05-21T16:22:02.305Z,3.10
2023-05-21T16:24:28.734Z,2.90
2023-05-21T16:26:55.217Z,2.38
2023-05-21T16:29:22.153Z,2.20
2023-05-21T16:31:48.939Z,2.83
2023-05-21T16:34:15.726Z,2.50
2023-05-21T16:36:42.495Z,3.22
2023-05-21T16:39:08.908Z,2.55
2023-05-21T16:41:35.408Z,2.53
2023-05-21T16:44:01.925Z,2.67
2023-05-21T16:46:28.444Z,2.65
2023-05-21T16:48:55.003Z,3.17
2023-05-21T16:51:21.488Z,3.38
2023-05-21T16:53:48.094Z,3.65
2023-05-21T16:56:14.590Z,3.45
2023-05-21T16:58:41.008Z,3.42
2023-05-21T17:01:07.538Z,3.50
2023-05-21T17:03:34.216Z,2.75
2023-05-21T17:06:00.877Z,2.55
2023-05-21T17:08:27.358Z,2.53
2023-05-21T17:10:54.571Z,3.67
2023-05-21T17:13:22.993Z,2.65
2023-05-21T17:15:51.204Z,2.72
2023-05-21T17:18:17.872Z,3.70
2023-05-21T17:20:44.704Z,3.15
2023-05-21T17:23:11.890Z,2.63
2023-05-21T17:25:39.401Z,3.28
2023-05-21T17:28:06.271Z,3.85
2023-05-21T17:30:33.237Z,3.33
2023-05-21T17:33:01.786Z,3.10
2023-05-21T17:35:28.283Z,3.30
2023-05-21T17:37:54.828Z,3.78
2023-05-21T17:40:23.669Z,3.65
2023-05-21T17:42:51.221Z,4.10
2023-05-21T17:45:17.776Z,3.53
2023-05-21T17:47:44.394Z,3.30
2023-05-21T17:50:11.020Z,3.60
2023-05-21T17:52:37.515Z,3.53
2023-05-21T17:55:04.351Z,4.78
2023-05-21T17:57:30.918Z,4.65
2023-05-21T17:59:57.461Z,4.20
2023-05-21T18:02:24.322Z,4.80
2023-05-21T18:04:50.853Z,5.05
2023-05-21T18:07:17.366Z,3.95
2023-05-21T18:09:43.885Z,4.50
2023-05-21T18:12:10.550Z,4.20
2023-05-21T18:14:36.997Z,4.25
2023-05-21T18:17:03.556Z,5.05
2023-05-21T18:19:31.290Z,4.82
2023-05-21T18:21:57.895Z,4.80
2023-05-21T18:24:24.366Z,5.60
2023-05-21T18:26:50.816Z,5.35
2023-05-21T18:29:17.442Z,5.47
2023-05-21T18:31:45.460Z,5.28
2023-05-21T18:34:12.029Z,5.53
2023-05-21T18:36:39.035Z,6.25
2023-05-21T18:39:07.260Z,4.15
2023-05-21T18:41:34.237Z,5.22
2023-05-21T18:44:03.656Z,6.60
2023-05-21T18:46:31.586Z,5.22
2023-05-21T18:48:59.780Z,6.93
2023-05-21T18:51:26.415Z,5.72
2023-05-21T18:53:52.967Z,6.32
2023-05-21T18:56:19.459Z,6.60
2023-05-21T18:58:46.168Z,6.18
2023-05-21T19:01:12.730Z,6.15
2023-05-21T19:03:39.337Z,7.05
2023-05-21T19:06:05.817Z,5.93
2023-05-21T19:08:32.283Z,5.53
2023-05-21T19:10:58.762Z,6.97
2023-05-21T19:13:26.204Z,6.43
2023-05-21T19:15:52.773Z,7.47
2023-05-21T19:18:19.356Z,6.72
2023-05-21T19:20:45.931Z,7.00
2023-05-21T19:23:12.528Z,6.63
2023-05-21T19:25:39.137Z,7.05
2023-05-21T19:28:05.654Z,6.35
2023-05-21T19:30:34.950Z,7.75
2023-05-21T19:33:01.679Z,6.28
2023-05-21T19:35:28.275Z,6.97
2023-05-21T19:37:58.644Z,7.85
2023-05-21T19:40:25.348Z,7.97
2023-05-21T19:42:51.850Z,7.90
2023-05-21T19:45:18.302Z,7.10
2023-05-21T19:47:44.910Z,7.07
2023-05-21T19:50:11.761Z,7.60
2023-05-21T19:52:41.427Z,6.70
2023-05-21T19:55:10.132Z,8.02
2023-05-21T19:57:37.153Z,6.50
2023-05-21T20:00:05.315Z,6.78
2023-05-21T20:02:38.735Z,6.78
2023-05-21T20:05:05.672Z,7.22
2023-05-21T20:07:32.102Z,7.38
2023-05-21T20:09:58.617Z,8.43
2023-05-21T20:12:25.065Z,6.13
2023-05-21T20:14:53.504Z,6.40
2023-05-21T20:17:20.441Z,8.43
2023-05-21T20:19:49.683Z,6.85
2023-05-21T20:22:16.505Z,6.80
2023-05-21T20:24:43.621Z,6.88
2023-05-21T20:27:10.220Z,6.20
2023-05-21T20:29:36.757Z,7.10
2023-05-21T20:32:03.295Z,7.68
2023-05-21T20:34:29.746Z,6.22
2023-05-21T20:36:58.177Z,6.57
2023-05-21T20:39:27.254Z,7.88
2023-05-21T20:41:54.985Z,5.88
2023-05-21T20:44:22.341Z,6.50
2023-05-21T20:46:49.180Z,6.95
2023-05-21T20:49:17.447Z,6.15
2023-05-21T20:51:43.971Z,7.20
2023-05-21T20:54:11.342Z,7.03
2023-05-21T20:56:42.640Z,6.18
2023-05-21T20:59:11.115Z,7.97
2023-05-21T21:01:40.492Z,7.55
2023-05-21T21:04:07.197Z,7.75
2023-05-21T21:06:34.799Z,7.95
2023-05-21T21:09:01.234Z,7.03
2023-05-21T21:11:27.694Z,7.65
2023-05-21T21:13:54.169Z,6.55
2023-05-21T21:16:20.777Z,7.53
2023-05-21T21:18:47.265Z,8.10
2023-05-21T21:21:13.929Z,7.47
2023-05-21T21:23:40.583Z,7.18
2023-05-21T21:26:07.227Z,6.63
2023-05-21T21:28:34.031Z,6.43
2023-05-21T21:31:00.807Z,8.57
2023-05-21T21:33:28.288Z,7.45
2023-05-21T21:35:54.986Z,8.13
2023-05-21T21:38:21.605Z,7.72
2023-05-21T21:40:48.094Z,6.88
2023-05-21T21:43:14.584Z,8.90
2023-05-21T21:45:41.158Z,7.00
2023-05-21T21:48:07.804Z,7.07
2023-05-21T21:50:34.336Z,8.13
2023-05-21T21:53:01.135Z,7.80
2023-05-21T21:55:27.775Z,7.00
2023-05-21T21:57:54.258Z,8.07
2023-05-21T22:00:21.053Z,7.70
2023-05-21T22:02:47.698Z,7.75
2023-05-21T22:05:14.875Z,7.45
2023-05-21T22:07:47.763Z,8.18
2023-05-21T22:10:17.780Z,7.70
2023-05-21T22:12:44.832Z,8.35
2023-05-21T22:15:18.970Z,8.07
2023-05-21T22:17:47.727Z,9.07
2023-05-21T22:20:15.007Z,8.00
2023-05-21T22:22:41.549Z,8.38
2023-05-21T22:25:08.424Z,8.65
2023-05-21T22:27:34.847Z,8.50
2023-05-21T22:30:01.334Z,7.65
2023-05-21T22:32:27.841Z,8.65
2023-05-21T22:34:54.262Z,8.32
2023-05-21T22:37:21.154Z,7.57
2023-05-21T22:39:47.638Z,8.23
2023-05-21T22:42:14.211Z,8.25
2023-05-21T22:44:40.867Z,8.52
2023-05-21T22:47:09.292Z,9.20
2023-05-21T22:49:37.974Z,8.30
2023-05-21T22:52:06.121Z,8.15
2023-05-21T22:54:32.941Z,9.07
2023-05-21T22:57:01.005Z,10.20
2023-05-21T22:59:32.134Z,10.13
2023-05-21T23:01:59.117Z,9.93
2023-05-21T23:04:40.134Z,7.97
2023-05-21T23:07:10.440Z,8.32
2023-05-21T23:09:36.908Z,9.88
2023-05-21T23:12:03.703Z,9.55
2023-05-21T23:14:30.134Z,8.65
2023-05-21T23:17:01.621Z,8.63
2023-05-21T23:19:29.116Z,7.63
2023-05-21T23:21:56.166Z,8.52
2023-05-21T23:24:22.953Z,8.63
2023-05-21T23:26:49.486Z,8.68
2023-05-21T23:29:16.003Z,9.73
2023-05-21T23:31:42.666Z,8.63
2023-05-21T23:34:09.568Z,8.65
2023-05-21T23:36:36.185Z,10.10
2023-05-21T23:39:02.746Z,9.65
2023-05-21T23:41:29.435Z,9.55
2023-05-21T23:43:55.997Z,8.73
2023-05-21T23:46:22.672Z,10.07
2023-05-21T23:48:49.443Z,10.23
2023-05-21T23:51:16.205Z,9.60
2023-05-21T23:53:42.678Z,9.65
2023-05-21T23:56:09.166Z,10.60
2023-05-21T23:58:35.771Z,9.93
